createdAt,value
2022-10-08T00:07:33.827Z,45.6
2022-10-08T00:39:35.935Z,46.2
2022-10-08T01:10:38.236Z,45.6
2022-10-08T01:40:40.174Z,47.2
2022-10-08T02:10:41.862Z,45.6
2022-10-08T02:41:43.744Z,47.2
2022-10-08T03:12:45.734Z,46.2
2022-10-08T03:44:47.852Z,46.7
2022-10-08T04:14:49.618Z,47.2
2022-10-08T04:45:51.618Z,45.1
2022-10-08T05:15:53.642Z,46.2
2022-10-08T05:46:55.566Z,45.6
2022-10-08T06:16:57.479Z,46.2
2022-10-08T06:47:59.536Z,47.8
2022-10-08T07:19:01.425Z,49.9
2022-10-08T07:49:03.359Z,51
2022-10-08T08:21:05.411Z,53.7
2022-10-08T08:52:07.429Z,54.2
2022-10-08T09:23:09.411Z,56.4
2022-10-08T09:53:11.345Z,55.8
2022-10-08T10:23:13.304Z,57.5
2022-10-08T10:57:15.557Z,56.4
2022-10-08T11:29:17.599Z,56.4
2022-10-08T12:00:19.675Z,58
2022-10-08T12:33:21.761Z,62.3
2022-10-08T13:03:23.929Z,59.1
2022-10-08T13:35:25.808Z,55.8
2022-10-08T14:05:27.736Z,56.9
2022-10-08T14:35:29.726Z,58
2022-10-08T15:06:31.753Z,56.9
2022-10-08T15:36:33.650Z,51
2022-10-08T16:06:35.610Z,47.8
2022-10-08T16:36:37.568Z,46.2
2022-10-08T17:06:39.393Z,45.1
2022-10-08T17:38:41.431Z,42.9
2022-10-08T18:08:43.388Z,42.9
2022-10-08T18:38:45.344Z,42.4
2022-10-08T19:11:47.558Z,41.9
2022-10-08T19:42:49.764Z,41.9
2022-10-08T20:12:51.461Z,40.8
2022-10-08T20:43:53.622Z,40.2
2022-10-08T21:14:55.584Z,40.8
2022-10-08T21:46:57.585Z,42.9
2022-10-08T22:16:59.614Z,44
2022-10-08T22:48:01.746Z,41.9
2022-10-08T23:19:03.463Z,40.2
2022-10-08T23:50:05.444Z,40.8
